Time;durP1;ratioP1;P1;durP2;ratioP2;P2;SDS_P1;SDS_P2;PMS_P1;PMS_P2;Temp;Humidity;BMP_temperature;BMP_pressure;BME280_temperature;BME280_humidity;BME280_pressure;Samples;Min_cycle;Max_cycle;Signal;HPM_P1;HPM_P2
2022/06/20 04:52:59;;;;;;;;;;;;;;;;;;;;;
2022/06/20 05:14:48;;;;;;;;;;;;;;;;;;;;;
2022/06/20 05:17:55;;;;;;;;;;;;;;;;;;;;;
2022/06/20 15:02:31;;;;;;;2.97;1.10;;;21.10;67.50;;;;;;5571606;22;15187581;-94
2022/06/20 15:05:43;;;;;;;;;;;;;;;;;;;;;
2022/06/20 15:20:40;;;;;;;4.22;1.45;;;21.40;65.20;;;;;;6089274;23;20041;-92
2022/06/20 15:22:54;;;;;;;1.83;1.10;;;21.40;64.90;;;;;;6113913;23;19995;-84
2022/06/20 15:25:25;;;;;;;3.22;1.23;;;21.40;64.70;;;;;;6150295;22;20004;-84
2022/06/20 15:28:36;;;;;;;3.00;1.00;;;21.40;63.90;;;;;;6254824;22;20322;-83
2022/06/20 15:31:46;;;;;;;;;;;;;;;;;;;;;
2022/06/20 15:34:20;;;;;;;3.22;1.10;;;21.40;64.00;;;;;;6277269;22;20087;-83
2022/06/20 15:36:48;;;;;;;2.25;1.15;;;21.40;63.40;;;;;;6250404;22;20004;-83
2022/06/20 15:39:25;;;;;;;3.05;1.25;;;21.40;63.10;;;;;;6249765;22;20000;-82
2022/06/20 15:44:31;;;;;;;3.75;1.50;;;21.30;62.80;;;;;;6287253;22;20000;-82
2022/06/20 15:47:24;;;;;;;2.25;1.00;;;21.30;62.60;;;;;;6250713;22;20019;-83
2022/06/20 15:50:04;;;;;;;2.47;0.98;;;21.30;63.10;;;;;;6249955;22;20060;-83
2022/06/20 15:52:51;;;;;;;2.78;1.30;;;21.30;63.70;;;;;;6250617;22;20039;-83
2022/06/20 15:55:19;;;;;;;4.70;1.20;;;21.40;63.80;;;;;;6250170;22;20008;-83
2022/06/20 15:58:14;;;;;;;1.55;1.00;;;21.40;63.60;;;;;;6250200;22;20012;-82
2022/06/20 16:00:51;;;;;;;2.42;1.00;;;21.40;63.90;;;;;;6249662;22;20429;-84
2022/06/20 16:03:53;;;;;;;1.95;1.20;;;21.30;64.10;;;;;;6276835;22;20188;-82
2022/06/20 16:06:34;;;;;;;2.60;1.35;;;21.40;64.00;;;;;;6250254;22;20007;-82
2022/06/20 16:09:15;;;;;;;4.45;1.30;;;21.30;63.70;;;;;;6249695;22;20065;-82
2022/06/20 16:11:51;;;;;;;5.40;1.23;;;21.10;63.70;;;;;;6250093;22;20000;-82
2022/06/20 16:14:29;;;;;;;2.58;1.10;;;20.90;64.20;;;;;;6249701;22;20000;-82
2022/06/20 16:16:55;;;;;;;3.65;1.55;;;20.80;64.60;;;;;;6250335;22;20003;-82
2022/06/20 16:19:32;;;;;;;4.00;1.20;;;20.70;64.70;;;;;;6276408;22;20453;-85
2022/06/20 16:22:11;;;;;;;3.33;1.50;;;20.60;65.00;;;;;;6276758;22;20000;-81
2022/06/20 16:24:37;;;;;;;3.80;1.20;;;20.60;65.00;;;;;;6250219;22;20087;-80
2022/06/20 16:27:23;;;;;;;6.22;1.63;;;20.60;65.10;;;;;;6249821;22;20085;-81
2022/06/20 16:29:53;;;;;;;3.00;1.63;;;20.50;64.80;;;;;;6250302;22;20000;-81
2022/06/20 16:32:31;;;;;;;3.95;1.27;;;20.40;65.20;;;;;;6249870;22;20337;-82
2022/06/20 16:34:59;;;;;;;3.65;1.10;;;20.30;65.60;;;;;;6277016;22;20332;-83
2022/06/20 16:37:27;;;;;;;1.55;1.02;;;20.10;65.80;;;;;;6249081;22;20502;-80
2022/06/20 16:40:04;;;;;;;2.65;1.33;;;20.10;66.10;;;;;;6249417;22;20061;-80
2022/06/20 16:42:35;;;;;;;2.90;1.38;;;20.00;66.20;;;;;;6249598;22;20330;-80
2022/06/20 16:45:16;;;;;;;3.60;1.30;;;20.00;66.20;;;;;;6277444;22;19995;-80
2022/06/20 16:48:09;;;;;;;6.68;1.45;;;19.90;66.80;;;;;;6277443;22;19996;-80
2022/06/20 16:51:09;;;;;;;3.53;1.60;;;19.80;66.30;;;;;;6250019;22;19999;-80
2022/06/20 16:54:16;;;;;;;3.22;1.80;;;19.80;66.40;;;;;;6276916;22;20433;-80
2022/06/20 16:57:25;;;;;;;2.55;1.50;;;19.80;66.50;;;;;;6252323;22;20030;-84
2022/06/20 17:00:11;;;;;;;2.53;1.33;;;19.80;67.10;;;;;;6254427;22;20076;-85
2022/06/20 17:03:14;;;;;;;1.88;1.17;;;19.80;66.40;;;;;;6250947;22;20468;-86
2022/06/20 17:05:49;;;;;;;1.63;1.13;;;19.80;66.50;;;;;;6280018;22;20007;-87
2022/06/20 17:08:41;;;;;;;3.92;1.27;;;19.80;66.30;;;;;;6253185;22;20071;-88
2022/06/20 17:11:21;;;;;;;3.97;1.45;;;19.80;66.10;;;;;;6255849;22;20057;-87
2022/06/20 17:14:33;;;;;;;3.17;1.23;;;19.80;66.20;;;;;;6271408;22;19998;-87
2022/06/20 17:17:07;;;;;;;;;;;19.80;66.20;;;;;;6266812;22;20011;-87
2022/06/20 17:19:52;;;;;;;;;;;;;;;;;;;;;
2022/06/20 17:22:25;;;;;;;3.40;1.33;;;19.80;66.50;;;;;;6302419;22;20018;-88
2022/06/20 17:25:06;;;;;;;2.10;1.20;;;19.80;66.60;;;;;;6266412;22;20095;-88
2022/06/20 17:27:45;;;;;;;2.80;1.63;;;19.90;66.80;;;;;;6253840;22;20053;-86
2022/06/20 17:30:44;;;;;;;3.47;1.50;;;19.90;66.50;;;;;;6254242;22;19996;-86
2022/06/20 17:34:09;;;;;;;2.75;1.20;;;19.80;66.40;;;;;;6243001;22;20004;-87
2022/06/20 17:36:38;;;;;;;1.63;1.20;;;19.80;66.40;;;;;;6102284;23;20002;-86
2022/06/20 17:39:44;;;;;;;1.42;1.30;;;19.80;66.80;;;;;;6103521;23;20388;-88
2022/06/20 17:42:24;;;;;;;1.48;0.77;;;19.80;67.00;;;;;;6219177;22;20074;-87
2022/06/20 17:45:07;;;;;;;3.38;1.00;;;19.90;67.20;;;;;;6254420;22;20039;-87
